Time;durP1;ratioP1;P1;durP2;ratioP2;P2;SDS_P1;SDS_P2;PMS_P1;PMS_P2;Temp;Humidity;BMP_temperature;BMP_pressure;BME280_temperature;BME280_humidity;BME280_pressure;Samples;Min_cycle;Max_cycle;Signal;HPM_P1;HPM_P2
2022/07/16 00:01:22;;;;;;;3.65;1.52;;;16.60;62.90;;;;;;5055266;28;20032;-78
2022/07/16 00:03:59;;;;;;;4.03;1.55;;;16.50;63.80;;;;;;5060663;28;20037;-78
2022/07/16 00:06:25;;;;;;;4.50;1.58;;;16.60;70.00;;;;;;5055963;28;20603;-78
2022/07/16 00:08:51;;;;;;;4.07;2.05;;;16.50;62.30;;;;;;5059944;28;20047;-78
2022/07/16 00:11:17;;;;;;;1.95;1.60;;;16.40;62.50;;;;;;5036906;28;20033;-78
2022/07/16 00:13:42;;;;;;;5.22;1.90;;;16.40;62.00;;;;;;5046676;28;20036;-78
2022/07/16 00:16:08;;;;;;;2.13;1.50;;;16.30;62.60;;;;;;5055014;28;20035;-78
2022/07/16 00:21:18;;;;;;;1.48;1.10;;;16.40;62.80;;;;;;5054153;28;20447;-78
2022/07/16 00:23:43;;;;;;;2.58;1.55;;;16.30;63.90;;;;;;5039630;28;20041;-79
2022/07/16 00:26:09;;;;;;;6.25;2.10;;;16.10;63.30;;;;;;5043882;28;20036;-79
2022/07/16 00:28:34;;;;;;;3.75;1.90;;;16.20;63.30;;;;;;5044959;28;20419;-79
2022/07/16 00:31:00;;;;;;;3.13;1.27;;;16.20;63.30;;;;;;5057234;28;20044;-79
2022/07/16 00:33:25;;;;;;;4.13;2.13;;;16.30;63.20;;;;;;5058896;28;20116;-79
2022/07/16 00:35:51;;;;;;;4.13;2.22;;;16.40;63.10;;;;;;5053962;28;20040;-79
2022/07/16 00:38:17;;;;;;;1.65;1.48;;;16.40;63.10;;;;;;5016029;28;20044;-79
2022/07/16 00:40:42;;;;;;;6.32;2.78;;;16.30;63.50;;;;;;5044244;28;20055;-79
2022/07/16 00:43:12;;;;;;;4.85;1.58;;;16.20;63.60;;;;;;5032269;28;20050;-79
2022/07/16 00:45:38;;;;;;;7.28;2.20;;;16.40;63.80;;;;;;5035101;28;20159;-78
2022/07/16 00:48:04;;;;;;;5.88;1.95;;;16.40;63.60;;;;;;5048288;28;20032;-78
2022/07/16 00:50:29;;;;;;;2.40;1.48;;;16.40;64.00;;;;;;5058183;28;20035;-78
2022/07/16 00:52:55;;;;;;;1.95;1.73;;;16.40;64.20;;;;;;5057807;28;20032;-78
2022/07/16 00:55:20;;;;;;;5.57;2.00;;;16.40;64.30;;;;;;5030775;28;20120;-78
2022/07/16 00:57:46;;;;;;;3.28;2.30;;;16.40;64.80;;;;;;5055270;28;20090;-78
2022/07/16 01:00:12;;;;;;;2.30;1.40;;;16.30;64.50;;;;;;5006832;28;20662;-78
2022/07/16 01:02:38;;;;;;;5.38;1.98;;;16.30;64.20;;;;;;5044146;28;20033;-78
2022/07/16 01:05:03;;;;;;;3.20;1.42;;;16.30;67.10;;;;;;5037100;28;20039;-78
2022/07/16 01:07:29;;;;;;;7.68;2.28;;;16.20;63.90;;;;;;5055486;28;20035;-79
2022/07/16 01:09:55;;;;;;;2.53;1.88;;;16.20;64.90;;;;;;5055513;28;20376;-79
2022/07/16 01:12:21;;;;;;;2.92;1.50;;;16.30;65.50;;;;;;5027058;28;20024;-79
2022/07/16 01:14:46;;;;;;;4.63;2.00;;;16.50;64.40;;;;;;5058094;28;20527;-78
2022/07/16 01:17:12;;;;;;;3.95;2.00;;;16.40;66.00;;;;;;5028109;28;20427;-79
2022/07/16 01:19:37;;;;;;;3.70;1.60;;;16.20;64.90;;;;;;5043821;28;20062;-78
2022/07/16 01:22:03;;;;;;;1.55;1.40;;;16.10;64.70;;;;;;5007022;28;20029;-79
2022/07/16 01:24:28;;;;;;;3.97;2.00;;;16.00;65.40;;;;;;5055241;28;20044;-79
2022/07/16 01:26:54;;;;;;;3.83;2.08;;;16.10;65.10;;;;;;5039309;28;20322;-78
2022/07/16 01:29:20;;;;;;;3.53;1.73;;;16.00;65.50;;;;;;5016048;28;20100;-79
2022/07/16 01:31:45;;;;;;;3.33;1.50;;;16.10;66.80;;;;;;5058280;28;20036;-79
2022/07/16 01:34:26;;;;;;;3.25;1.55;;;16.10;65.20;;;;;;5054277;28;20024;-79
2022/07/16 01:36:59;;;;;;;1.80;1.25;;;16.10;65.80;;;;;;5057447;28;20037;-78
2022/07/16 01:39:25;;;;;;;2.70;1.48;;;16.10;66.60;;;;;;5029783;28;20116;-79
2022/07/16 01:41:51;;;;;;;2.10;1.80;;;16.00;66.10;;;;;;5041087;28;20393;-78
2022/07/16 01:44:17;;;;;;;5.18;1.83;;;15.90;68.10;;;;;;5014958;28;20056;-78
2022/07/16 01:46:43;;;;;;;2.97;1.70;;;16.00;66.60;;;;;;5052960;28;20106;-79
2022/07/16 01:49:08;;;;;;;2.33;1.92;;;16.00;68.20;;;;;;5042702;28;20035;-78
2022/07/16 01:51:34;;;;;;;1.92;1.50;;;16.00;67.70;;;;;;5058738;28;20036;-79
2022/07/16 01:53:59;;;;;;;3.08;1.92;;;15.90;66.90;;;;;;5055216;28;20114;-79
2022/07/16 01:56:25;;;;;;;3.05;2.05;;;15.90;69.00;;;;;;5041101;28;20024;-78
2022/07/16 01:58:51;;;;;;;3.67;2.00;;;15.70;68.60;;;;;;5055770;28;20039;-78
2022/07/16 02:01:16;;;;;;;5.28;2.33;;;15.70;67.70;;;;;;5013621;28;20036;-79
2022/07/16 02:03:42;;;;;;;3.10;2.08;;;15.60;67.10;;;;;;5050852;28;20497;-79
2022/07/16 02:06:07;;;;;;;4.13;2.00;;;15.70;67.30;;;;;;5054126;28;20562;-78
2022/07/16 02:08:33;;;;;;;6.00;2.45;;;15.90;67.60;;;;;;5036787;28;20033;-79
2022/07/16 02:10:58;;;;;;;9.18;2.85;;;15.70;67.50;;;;;;5044070;28;20024;-79
2022/07/16 02:13:24;;;;;;;3.55;1.58;;;15.70;67.00;;;;;;5054805;28;20029;-78
2022/07/16 02:15:49;;;;;;;5.80;2.75;;;15.80;66.80;;;;;;5043299;28;20033;-79
2022/07/16 02:18:15;;;;;;;5.05;2.67;;;15.80;67.40;;;;;;5009957;28;20124;-78
2022/07/16 02:20:40;;;;;;;9.00;2.78;;;15.80;67.10;;;;;;5056908;28;20044;-78
2022/07/16 02:23:06;;;;;;;3.20;2.40;;;15.80;67.40;;;;;;5045612;28;20044;-78
2022/07/16 02:25:31;;;;;;;5.38;2.22;;;15.80;67.10;;;;;;5053620;28;20443;-78
2022/07/16 02:28:06;;;;;;;3.97;2.00;;;15.80;67.50;;;;;;5053591;28;20514;-79
2022/07/16 02:30:36;;;;;;;3.72;2.15;;;15.80;68.50;;;;;;5059376;28;20028;-78
2022/07/16 02:33:01;;;;;;;4.43;2.50;;;16.00;67.40;;;;;;5056778;28;20090;-78
2022/07/16 02:35:27;;;;;;;4.05;2.40;;;16.00;68.00;;;;;;5031982;28;20029;-78
2022/07/16 02:37:52;;;;;;;3.75;2.63;;;16.00;67.10;;;;;;5053653;28;20508;-78
2022/07/16 02:40:18;;;;;;;5.53;2.72;;;15.90;67.10;;;;;;5008343;28;20039;-78
2022/07/16 02:42:44;;;;;;;4.25;2.42;;;16.00;67.60;;;;;;5045365;28;20060;-79
2022/07/16 02:45:10;;;;;;;3.95;2.35;;;16.00;67.40;;;;;;5038162;28;20043;-79
2022/07/16 02:47:36;;;;;;;9.75;2.42;;;16.10;67.50;;;;;;5042095;28;20029;-78
2022/07/16 02:50:02;;;;;;;3.95;2.17;;;16.10;66.90;;;;;;5023296;28;20036;-78
2022/07/16 02:52:28;;;;;;;2.35;1.95;;;16.00;66.70;;;;;;5013616;28;20416;-78
2022/07/16 02:54:54;;;;;;;7.78;2.05;;;16.10;67.20;;;;;;5056227;28;20040;-78
2022/07/16 02:57:20;;;;;;;4.55;1.92;;;16.20;66.90;;;;;;5009854;28;20090;-78
2022/07/16 02:59:46;;;;;;;4.40;2.05;;;16.20;67.20;;;;;;5042943;28;20057;-78
2022/07/16 03:02:11;;;;;;;3.47;1.90;;;16.50;67.30;;;;;;5009869;28;20075;-78
2022/07/16 03:04:37;;;;;;;3.75;1.83;;;16.30;66.80;;;;;;5045532;28;20032;-78
2022/07/16 03:07:03;;;;;;;2.42;2.00;;;16.20;66.90;;;;;;5041623;28;20031;-78
2022/07/16 03:09:28;;;;;;;7.82;2.45;;;16.20;67.70;;;;;;5028993;28;20048;-78
2022/07/16 03:11:54;;;;;;;4.80;2.08;;;16.20;66.80;;;;;;5041649;28;20029;-79
2022/07/16 03:14:19;;;;;;;3.92;2.17;;;16.30;66.90;;;;;;5052930;28;20025;-78
2022/07/16 03:16:45;;;;;;;7.68;2.20;;;16.30;67.10;;;;;;5039964;28;20029;-78
2022/07/16 03:19:10;;;;;;;5.28;2.42;;;16.20;67.00;;;;;;5047831;28;20056;-78
2022/07/16 03:21:36;;;;;;;3.33;2.03;;;16.30;67.10;;;;;;5052643;28;20040;-78
2022/07/16 03:24:01;;;;;;;3.40;1.98;;;16.20;67.20;;;;;;5031718;28;20020;-78
2022/07/16 03:26:27;;;;;;;2.47;1.80;;;16.30;67.80;;;;;;5046849;28;20068;-78
2022/07/16 03:28:53;;;;;;;5.10;2.67;;;16.30;68.10;;;;;;5054980;28;20029;-78
2022/07/16 03:31:18;;;;;;;6.05;2.80;;;16.40;67.60;;;;;;5048338;28;20582;-78
2022/07/16 03:33:44;;;;;;;3.90;2.03;;;16.40;69.50;;;;;;5041231;28;20116;-79
2022/07/16 03:36:10;;;;;;;2.35;1.95;;;16.60;67.90;;;;;;5019402;28;20550;-78
2022/07/16 03:41:19;;;;;;;3.40;2.30;;;16.60;68.40;;;;;;5060087;28;20047;-78
2022/07/16 03:43:45;;;;;;;6.25;2.13;;;16.40;68.70;;;;;;5047922;28;20041;-78
2022/07/16 03:46:13;;;;;;;3.20;2.65;;;16.70;68.70;;;;;;5054902;28;20029;-79
2022/07/16 03:48:40;;;;;;;3.63;2.42;;;16.30;68.70;;;;;;5047021;28;20095;-78
2022/07/16 03:51:08;;;;;;;6.13;2.67;;;16.40;68.50;;;;;;5032179;28;20029;-78
2022/07/16 03:53:34;;;;;;;2.50;1.83;;;16.30;69.70;;;;;;5060653;28;20104;-78
2022/07/16 03:55:59;;;;;;;5.90;2.08;;;16.60;69.00;;;;;;5042902;28;20204;-78
2022/07/16 03:58:28;;;;;;;2.22;1.95;;;16.30;68.40;;;;;;5058644;28;20037;-78
2022/07/16 04:00:53;;;;;;;2.45;1.83;;;16.40;68.80;;;;;;5044878;28;20075;-78
2022/07/16 04:03:19;;;;;;;3.05;1.92;;;16.40;69.00;;;;;;5015613;28;20024;-79
2022/07/16 04:05:44;;;;;;;4.63;1.92;;;16.30;68.90;;;;;;5054776;28;20041;-78
2022/07/16 04:08:10;;;;;;;3.10;2.15;;;16.30;68.10;;;;;;5045095;28;20025;-78
2022/07/16 04:10:36;;;;;;;3.97;1.77;;;16.40;68.60;;;;;;5044498;28;20401;-78
2022/07/16 04:13:01;;;;;;;6.55;3.15;;;16.40;69.00;;;;;;5058186;28;20655;-78
2022/07/16 04:15:27;;;;;;;10.38;3.22;;;16.50;69.60;;;;;;5015995;28;20379;-78
2022/07/16 04:17:52;;;;;;;3.60;2.28;;;16.50;69.60;;;;;;5058567;28;20045;-78
2022/07/16 04:20:18;;;;;;;2.50;1.80;;;16.40;69.60;;;;;;5054975;28;20497;-78
2022/07/16 04:22:44;;;;;;;4.55;1.90;;;16.50;68.90;;;;;;5055901;28;20033;-79
2022/07/16 04:25:09;;;;;;;2.60;2.10;;;16.50;68.80;;;;;;5042656;28;20114;-78
2022/07/16 04:27:35;;;;;;;5.18;2.42;;;16.60;68.80;;;;;;5054675;28;20392;-79
2022/07/16 04:30:00;;;;;;;2.80;2.30;;;16.60;68.70;;;;;;5045017;28;20110;-78
2022/07/16 04:32:26;;;;;;;3.92;2.10;;;16.60;69.10;;;;;;5054374;28;20029;-78
2022/07/16 04:34:51;;;;;;;5.20;2.40;;;16.50;69.60;;;;;;5040514;28;20041;-78
2022/07/16 04:37:17;;;;;;;2.47;2.03;;;16.50;69.10;;;;;;5029308;28;20330;-78
2022/07/16 04:39:42;;;;;;;6.70;2.20;;;16.60;69.40;;;;;;5034452;28;20029;-79
2022/07/16 04:42:08;;;;;;;5.95;2.00;;;16.70;69.60;;;;;;5015565;28;20136;-78
2022/07/16 04:44:33;;;;;;;2.53;1.92;;;16.50;68.40;;;;;;5059446;28;20036;-78
2022/07/16 04:46:59;;;;;;;6.22;2.33;;;16.60;68.90;;;;;;5056906;28;20024;-78
2022/07/16 04:49:25;;;;;;;7.53;2.45;;;16.60;69.00;;;;;;5045751;28;20112;-78
2022/07/16 04:51:50;;;;;;;6.38;2.75;;;16.60;69.70;;;;;;5047454;28;20111;-78
2022/07/16 04:54:16;;;;;;;2.95;2.20;;;16.70;69.70;;;;;;5029180;28;20480;-78
2022/07/16 04:56:41;;;;;;;9.52;2.50;;;16.70;69.50;;;;;;5059920;28;20137;-79
2022/07/16 04:59:07;;;;;;;3.95;1.92;;;16.70;69.40;;;;;;5048488;28;20373;-79
2022/07/16 05:01:32;;;;;;;4.07;2.38;;;16.90;69.10;;;;;;5055549;28;20040;-78
2022/07/16 05:03:58;;;;;;;4.75;2.65;;;16.80;69.50;;;;;;5057735;28;20050;-79
2022/07/16 05:06:23;;;;;;;5.20;2.10;;;16.80;68.90;;;;;;5012600;28;20120;-78
2022/07/16 05:08:49;;;;;;;8.00;2.60;;;16.90;69.10;;;;;;5057029;28;20128;-78
2022/07/16 05:11:15;;;;;;;4.30;2.33;;;16.80;68.20;;;;;;5046367;28;20037;-79
2022/07/16 05:13:40;;;;;;;5.28;1.88;;;16.90;68.70;;;;;;5043050;28;20037;-78
2022/07/16 05:16:06;;;;;;;3.25;1.60;;;17.00;68.40;;;;;;5044182;28;20028;-78
2022/07/16 05:18:31;;;;;;;3.47;2.33;;;17.00;68.70;;;;;;5014546;28;20128;-78
2022/07/16 05:20:57;;;;;;;3.50;2.00;;;17.10;68.70;;;;;;5044631;28;20052;-78
2022/07/16 05:23:22;;;;;;;5.97;2.00;;;17.10;68.10;;;;;;5043267;28;20029;-78
2022/07/16 05:25:48;;;;;;;2.40;1.80;;;17.20;68.20;;;;;;5053898;28;20079;-78
2022/07/16 05:28:14;;;;;;;2.78;1.88;;;17.30;67.90;;;;;;5029042;28;20502;-78
2022/07/16 05:30:39;;;;;;;3.08;2.05;;;17.30;67.70;;;;;;5051796;28;20047;-79
2022/07/16 05:33:05;;;;;;;3.92;1.58;;;17.40;68.10;;;;;;5030211;28;20480;-78
2022/07/16 05:35:30;;;;;;;3.53;2.53;;;17.40;67.20;;;;;;5045103;28;20382;-78
2022/07/16 05:37:56;;;;;;;2.85;1.80;;;17.50;67.50;;;;;;5046336;28;20375;-78
2022/07/16 05:40:21;;;;;;;5.10;2.00;;;17.60;67.10;;;;;;5028389;28;20024;-78
2022/07/16 05:42:47;;;;;;;2.65;2.10;;;17.70;67.10;;;;;;5059616;28;20051;-78
2022/07/16 05:45:12;;;;;;;5.38;2.25;;;17.90;66.90;;;;;;5050328;28;20028;-78
2022/07/16 05:47:38;;;;;;;3.75;2.00;;;17.90;67.80;;;;;;5055219;28;20107;-78
2022/07/16 05:50:04;;;;;;;5.22;2.92;;;17.90;67.90;;;;;;5046604;28;20035;-80
2022/07/16 05:52:30;;;;;;;4.22;2.40;;;18.30;67.40;;;;;;5056789;28;20033;-79
2022/07/16 05:54:55;;;;;;;3.70;2.75;;;18.50;67.20;;;;;;5052138;28;20025;-79
2022/07/16 05:57:21;;;;;;;6.40;3.15;;;18.50;66.80;;;;;;5047867;28;20492;-78
2022/07/16 05:59:46;;;;;;;5.97;3.53;;;18.70;67.30;;;;;;5045506;28;20029;-78
2022/07/16 06:02:12;;;;;;;5.32;3.03;;;18.70;67.40;;;;;;5028758;28;20501;-79
2022/07/16 06:04:37;;;;;;;4.95;3.15;;;18.80;66.70;;;;;;5056554;28;20024;-79
2022/07/16 06:07:03;;;;;;;3.50;1.88;;;18.80;67.10;;;;;;5056225;28;20028;-79
2022/07/16 06:09:29;;;;;;;6.90;3.05;;;18.80;66.70;;;;;;5037695;28;20037;-78
2022/07/16 06:11:54;;;;;;;9.35;3.88;;;18.90;67.10;;;;;;5055987;28;20028;-79
2022/07/16 06:14:20;;;;;;;5.82;3.45;;;19.00;67.50;;;;;;5027246;28;20063;-78
2022/07/16 06:16:45;;;;;;;7.95;3.60;;;19.10;67.50;;;;;;5055790;28;20029;-78
2022/07/16 06:19:11;;;;;;;8.02;4.75;;;19.20;67.40;;;;;;5033811;28;20154;-79
2022/07/16 06:21:36;;;;;;;11.70;5.70;;;19.80;69.20;;;;;;5009967;28;20029;-79
2022/07/16 06:24:02;;;;;;;9.38;4.75;;;19.20;69.90;;;;;;5055904;28;20412;-79
2022/07/16 06:26:28;;;;;;;7.80;5.13;;;19.20;69.60;;;;;;5041924;28;20039;-78
2022/07/16 06:28:53;;;;;;;5.18;4.30;;;19.30;69.60;;;;;;5041342;28;20029;-79
2022/07/16 06:31:19;;;;;;;9.35;4.97;;;19.30;69.40;;;;;;5042618;28;20032;-79
2022/07/16 06:33:44;;;;;;;5.53;4.72;;;19.30;69.40;;;;;;5038425;28;20039;-79
2022/07/16 06:36:10;;;;;;;7.93;4.70;;;19.40;69.10;;;;;;5054300;28;20090;-79
2022/07/16 06:38:36;;;;;;;10.70;4.57;;;19.60;70.50;;;;;;5057019;28;20042;-79
2022/07/16 06:41:01;;;;;;;6.57;3.72;;;19.50;69.20;;;;;;5055685;28;20066;-79
2022/07/16 06:43:27;;;;;;;7.07;4.20;;;19.70;69.30;;;;;;5054285;28;20433;-79
2022/07/16 06:45:52;;;;;;;9.73;4.22;;;19.90;70.40;;;;;;5058909;28;20504;-79
2022/07/16 06:48:18;;;;;;;5.68;3.42;;;20.40;70.90;;;;;;5009453;28;20459;-79
2022/07/16 06:50:44;;;;;;;5.63;3.85;;;20.50;70.00;;;;;;5055193;28;20028;-79
2022/07/16 06:53:09;;;;;;;6.78;4.07;;;20.90;69.70;;;;;;5050140;28;20033;-79
2022/07/16 06:55:35;;;;;;;6.68;4.03;;;21.00;68.80;;;;;;5057435;28;20036;-79
2022/07/16 06:58:00;;;;;;;6.97;3.45;;;21.10;68.40;;;;;;5055654;28;20139;-79
2022/07/16 07:00:26;;;;;;;7.50;3.10;;;21.30;67.80;;;;;;5051895;28;20465;-79
2022/07/16 07:02:52;;;;;;;2.70;2.13;;;21.50;67.70;;;;;;5047074;28;20067;-79
2022/07/16 07:05:17;;;;;;;12.18;3.08;;;21.50;66.50;;;;;;5057279;28;20108;-79
2022/07/16 07:07:43;;;;;;;7.40;2.30;;;21.70;67.00;;;;;;5061261;28;20118;-79
2022/07/16 07:10:09;;;;;;;7.30;2.47;;;21.90;66.20;;;;;;5043964;28;20036;-80
2022/07/16 07:12:34;;;;;;;3.20;1.70;;;21.70;65.60;;;;;;5058117;28;20128;-80
2022/07/16 07:15:00;;;;;;;4.15;2.67;;;21.90;65.50;;;;;;5046547;28;20040;-80
2022/07/16 07:17:25;;;;;;;2.47;1.45;;;21.90;65.80;;;;;;5043585;28;20040;-80
2022/07/16 07:19:51;;;;;;;5.80;2.25;;;22.10;65.50;;;;;;5054388;28;20477;-79
2022/07/16 07:22:17;;;;;;;3.38;1.88;;;22.20;65.30;;;;;;5031825;28;20025;-80
2022/07/16 07:24:42;;;;;;;3.53;1.88;;;22.40;65.30;;;;;;5043754;28;20029;-80
2022/07/16 07:27:08;;;;;;;4.25;1.75;;;22.50;64.50;;;;;;5045400;28;20088;-80
2022/07/16 07:29:33;;;;;;;2.55;1.42;;;22.50;63.20;;;;;;5043800;28;20392;-80
2022/07/16 07:31:59;;;;;;;2.83;1.27;;;22.80;63.50;;;;;;5057718;28;20025;-80
2022/07/16 07:34:24;;;;;;;1.73;0.93;;;23.00;62.10;;;;;;5055713;28;20017;-80
2022/07/16 07:36:50;;;;;;;1.10;0.80;;;23.10;60.20;;;;;;5057548;28;20033;-80
2022/07/16 07:39:16;;;;;;;2.60;0.95;;;23.00;61.10;;;;;;5056874;28;20029;-80
2022/07/16 07:41:41;;;;;;;2.45;0.85;;;23.30;61.60;;;;;;5060535;28;20033;-80
2022/07/16 07:44:07;;;;;;;2.25;1.13;;;23.20;61.10;;;;;;5060497;28;20064;-80
2022/07/16 07:46:33;;;;;;;2.15;1.02;;;23.60;61.60;;;;;;5039931;28;20033;-80
2022/07/16 07:48:58;;;;;;;1.35;0.80;;;24.00;59.50;;;;;;5057771;28;20082;-80
2022/07/16 07:51:24;;;;;;;3.70;0.90;;;24.10;59.90;;;;;;5058137;28;20036;-81
2022/07/16 07:53:49;;;;;;;4.93;0.90;;;24.50;57.70;;;;;;5057132;28;20021;-80
2022/07/16 07:56:15;;;;;;;3.08;0.90;;;24.60;56.70;;;;;;5057339;28;20033;-80
2022/07/16 07:58:40;;;;;;;0.95;0.70;;;24.60;56.80;;;;;;5057207;28;20400;-80
2022/07/16 08:01:06;;;;;;;0.80;0.60;;;24.60;56.50;;;;;;5045391;28;20032;-80
2022/07/16 08:03:32;;;;;;;0.68;0.63;;;24.50;57.20;;;;;;5050931;28;20033;-80
2022/07/16 08:05:57;;;;;;;1.40;0.80;;;24.70;55.40;;;;;;5061213;28;20095;-80
2022/07/16 08:08:23;;;;;;;3.13;0.80;;;24.70;56.80;;;;;;5051523;28;20120;-81
2022/07/16 08:10:48;;;;;;;1.67;0.77;;;24.90;54.90;;;;;;5047013;28;20036;-80
2022/07/16 08:13:14;;;;;;;2.47;1.00;;;25.20;53.10;;;;;;5046845;28;20437;-81
2022/07/16 08:15:39;;;;;;;2.40;0.80;;;25.10;54.30;;;;;;5057570;28;20040;-81
2022/07/16 08:18:05;;;;;;;1.17;0.90;;;25.00;53.40;;;;;;5030537;28;20043;-81
2022/07/16 08:20:31;;;;;;;2.25;0.63;;;25.10;54.60;;;;;;5055457;28;20032;-81
2022/07/16 08:22:57;;;;;;;1.27;0.50;;;25.20;55.20;;;;;;5045880;28;20040;-81
2022/07/16 08:28:06;;;;;;;2.72;1.20;;;25.60;54.00;;;;;;5059819;28;20373;-81
2022/07/16 08:30:32;;;;;;;3.03;0.73;;;25.60;52.90;;;;;;5058624;28;20040;-82
2022/07/16 08:32:58;;;;;;;2.80;0.90;;;25.70;52.40;;;;;;5060631;28;20051;-81
2022/07/16 08:35:23;;;;;;;3.65;0.80;;;25.60;52.90;;;;;;5017982;28;20517;-81
2022/07/16 08:37:49;;;;;;;2.25;0.90;;;25.90;51.40;;;;;;5046765;28;20044;-82
2022/07/16 08:40:16;;;;;;;3.38;0.98;;;25.90;51.80;;;;;;5045596;28;20108;-83
2022/07/16 08:42:42;;;;;;;3.72;0.75;;;26.20;52.30;;;;;;5022222;28;20044;-82
2022/07/16 08:45:09;;;;;;;0.75;0.55;;;26.10;52.30;;;;;;5042862;28;20021;-82
2022/07/16 08:47:34;;;;;;;1.10;0.60;;;25.90;53.10;;;;;;5019391;28;20119;-82
2022/07/16 08:50:01;;;;;;;4.20;0.90;;;26.20;53.20;;;;;;5057687;28;20120;-82
2022/07/16 08:52:28;;;;;;;3.47;1.00;;;26.40;52.70;;;;;;5055773;28;20551;-82
2022/07/16 08:54:54;;;;;;;1.65;0.85;;;26.50;52.70;;;;;;5057538;28;20044;-83
2022/07/16 08:57:20;;;;;;;2.75;1.00;;;26.50;51.50;;;;;;5013429;28;20040;-82
2022/07/16 08:59:46;;;;;;;1.05;0.55;;;26.80;49.50;;;;;;5043366;28;20025;-82
2022/07/16 09:02:12;;;;;;;2.50;0.90;;;26.60;49.40;;;;;;5012828;28;20067;-82
2022/07/16 09:04:38;;;;;;;2.63;1.17;;;26.40;50.30;;;;;;5043869;28;20032;-82
2022/07/16 09:07:04;;;;;;;3.38;0.80;;;26.40;50.60;;;;;;5013764;28;20174;-82
2022/07/16 09:09:30;;;;;;;2.40;0.82;;;26.50;50.70;;;;;;5044738;28;20108;-82
2022/07/16 09:11:55;;;;;;;1.83;0.90;;;26.50;50.90;;;;;;5041171;28;20128;-82
2022/07/16 09:14:21;;;;;;;3.83;0.98;;;26.60;50.90;;;;;;5043287;28;20059;-81
2022/07/16 09:16:51;;;;;;;3.08;1.35;;;26.80;48.80;;;;;;5055540;28;20028;-80
2022/07/16 09:19:21;;;;;;;2.33;1.00;;;26.80;48.90;;;;;;5028442;28;20074;-81
2022/07/16 09:22:05;;;;;;;1.15;0.60;;;26.90;50.40;;;;;;5053398;28;20032;-81
2022/07/16 09:24:35;;;;;;;1.83;0.95;;;26.90;49.90;;;;;;5041945;28;20036;-82
2022/07/16 09:27:10;;;;;;;2.40;1.08;;;27.30;51.10;;;;;;5051234;28;20036;-82
2022/07/16 09:29:43;;;;;;;2.72;1.38;;;27.40;50.40;;;;;;5040679;28;20045;-82
2022/07/16 09:32:09;;;;;;;3.17;1.00;;;27.50;50.00;;;;;;5058877;28;20396;-83
2022/07/16 09:34:35;;;;;;;4.50;0.90;;;27.20;49.90;;;;;;5050383;28;20037;-82
2022/07/16 09:37:05;;;;;;;1.17;1.00;;;27.00;49.60;;;;;;5056729;28;20074;-83
2022/07/16 09:39:31;;;;;;;1.95;0.63;;;27.00;49.50;;;;;;5032423;28;20246;-83
2022/07/16 09:41:57;;;;;;;1.88;0.70;;;27.30;49.10;;;;;;5056815;28;20033;-82
2022/07/16 09:44:24;;;;;;;2.72;1.05;;;27.30;50.00;;;;;;5052875;28;20051;-82
2022/07/16 09:47:08;;;;;;;2.50;1.20;;;27.70;48.00;;;;;;5055553;28;20035;-82
2022/07/16 09:49:36;;;;;;;2.45;0.85;;;27.90;48.30;;;;;;5047626;28;20496;-83
2022/07/16 09:52:08;;;;;;;1.45;0.73;;;28.20;48.10;;;;;;5045002;28;20029;-83
2022/07/16 09:54:35;;;;;;;3.85;0.57;;;28.20;47.30;;;;;;5012597;28;20060;-83
2022/07/16 09:57:18;;;;;;;2.33;0.90;;;28.30;47.80;;;;;;5040873;28;20020;-83
2022/07/16 09:59:44;;;;;;;1.92;0.90;;;28.00;47.10;;;;;;5046179;28;20025;-83
2022/07/16 10:02:10;;;;;;;3.97;1.27;;;28.00;46.70;;;;;;5057621;28;20051;-83
2022/07/16 10:04:37;;;;;;;1.80;0.95;;;27.90;48.40;;;;;;5043102;28;20727;-83
2022/07/16 10:07:03;;;;;;;1.40;0.80;;;28.10;48.40;;;;;;5044936;28;20036;-83
2022/07/16 10:09:28;;;;;;;3.33;1.00;;;28.40;48.30;;;;;;5039645;28;20048;-82
2022/07/16 10:11:55;;;;;;;2.60;0.90;;;28.60;47.90;;;;;;5042930;28;20025;-83
2022/07/16 10:14:21;;;;;;;3.88;1.25;;;29.10;47.20;;;;;;5012483;28;20029;-83
2022/07/16 10:16:47;;;;;;;2.33;0.88;;;29.40;46.20;;;;;;5046013;28;20029;-83
2022/07/16 10:19:13;;;;;;;1.42;1.00;;;29.00;46.00;;;;;;5024578;28;20098;-83
2022/07/16 10:21:38;;;;;;;1.35;0.90;;;29.10;46.20;;;;;;5057059;28;20037;-83
2022/07/16 10:24:13;;;;;;;3.00;0.90;;;29.00;45.20;;;;;;5034138;28;20112;-83
2022/07/16 10:26:39;;;;;;;2.47;0.82;;;29.10;45.20;;;;;;5053859;28;20442;-83
2022/07/16 10:29:06;;;;;;;5.32;1.05;;;29.10;45.60;;;;;;5015394;28;20028;-83
2022/07/16 10:34:37;;;;;;;1.48;0.60;;;29.30;45.20;;;;;;5054162;28;20174;-83
2022/07/16 10:37:03;;;;;;;0.85;0.57;;;29.20;44.70;;;;;;5057557;28;20033;-83
2022/07/16 10:39:29;;;;;;;2.80;0.70;;;29.40;42.70;;;;;;5054497;28;20504;-84
2022/07/16 10:42:02;;;;;;;1.92;1.05;;;29.60;42.80;;;;;;5060309;28;20047;-84
2022/07/16 10:44:48;;;;;;;1.48;1.02;;;29.90;42.80;;;;;;5059267;28;20073;-84
2022/07/16 10:47:14;;;;;;;2.40;0.80;;;29.90;41.90;;;;;;5037691;28;20025;-85
2022/07/16 10:49:40;;;;;;;5.40;1.10;;;30.10;41.40;;;;;;5053008;28;20415;-85
2022/07/16 10:52:10;;;;;;;1.38;0.68;;;30.00;41.70;;;;;;5016948;28;20052;-85
2022/07/16 10:54:40;;;;;;;3.38;0.82;;;29.90;42.70;;;;;;5020963;28;20028;-85
2022/07/16 10:57:10;;;;;;;2.88;0.90;;;30.00;42.50;;;;;;5042769;28;20033;-86
2022/07/16 10:59:42;;;;;;;3.35;0.98;;;30.00;42.30;;;;;;5015010;28;20975;-86
2022/07/16 11:02:08;;;;;;;4.00;1.02;;;30.10;41.70;;;;;;5035216;28;20560;-85
2022/07/16 11:04:39;;;;;;;3.47;0.85;;;30.40;42.30;;;;;;5027834;28;20033;-85
2022/07/16 11:07:10;;;;;;;1.92;0.90;;;30.50;41.00;;;;;;5043183;28;20078;-85
2022/07/16 11:09:38;;;;;;;3.17;1.40;;;30.60;40.20;;;;;;5032368;28;20108;-85
2022/07/16 11:12:20;;;;;;;3.45;1.17;;;30.50;41.50;;;;;;5057273;28;20434;-85
2022/07/16 11:14:47;;;;;;;4.47;1.42;;;30.70;40.70;;;;;;5055198;28;20441;-87
2022/07/16 11:17:14;;;;;;;3.45;0.60;;;30.70;40.00;;;;;;5032099;28;20036;-86
2022/07/16 11:19:50;;;;;;;5.00;0.88;;;30.40;42.00;;;;;;5041234;28;20484;-86
2022/07/16 11:22:20;;;;;;;3.35;1.10;;;30.20;40.80;;;;;;5033507;28;20032;-85
2022/07/16 11:24:53;;;;;;;1.67;0.80;;;30.20;40.70;;;;;;5039858;28;20025;-85
2022/07/16 11:27:25;;;;;;;2.35;1.10;;;29.90;41.00;;;;;;5027196;28;20279;-85
2022/07/16 11:29:55;;;;;;;2.97;0.88;;;30.00;42.20;;;;;;5054303;28;20496;-83
2022/07/16 11:32:21;;;;;;;3.47;1.10;;;30.20;40.30;;;;;;5006551;28;20033;-85
2022/07/16 11:34:47;;;;;;;1.23;0.75;;;30.40;40.70;;;;;;5057578;28;20029;-84
2022/07/16 11:37:12;;;;;;;6.75;1.38;;;30.60;41.30;;;;;;5030629;28;20021;-85
2022/07/16 11:39:38;;;;;;;3.25;0.82;;;30.80;39.80;;;;;;5048153;28;20036;-84
2022/07/16 11:42:04;;;;;;;2.92;0.90;;;30.70;40.20;;;;;;5020047;28;20040;-85
2022/07/16 11:44:31;;;;;;;2.90;1.00;;;30.70;40.50;;;;;;5048504;28;20033;-84
2022/07/16 11:47:01;;;;;;;4.20;0.80;;;30.70;39.40;;;;;;5059911;28;20673;-85
2022/07/16 11:49:33;;;;;;;3.55;0.90;;;30.60;39.50;;;;;;5047557;28;20484;-84
2022/07/16 11:52:10;;;;;;;2.42;0.80;;;30.40;39.00;;;;;;5055429;28;20033;-83
2022/07/16 11:54:38;;;;;;;1.90;0.80;;;30.40;39.00;;;;;;5055553;28;20032;-83
2022/07/16 11:57:03;;;;;;;4.53;1.00;;;30.60;40.10;;;;;;5056496;28;20029;-85
2022/07/16 11:59:31;;;;;;;3.72;1.02;;;30.50;40.30;;;;;;5059185;28;20055;-85
2022/07/16 12:02:18;;;;;;;3.30;0.70;;;30.60;39.40;;;;;;5047778;28;20028;-84
2022/07/16 12:04:46;;;;;;;2.63;0.98;;;30.70;40.40;;;;;;5029244;28;20052;-85
2022/07/16 12:07:15;;;;;;;4.88;1.17;;;30.70;40.00;;;;;;5053763;28;20065;-84
2022/07/16 12:09:43;;;;;;;4.75;1.00;;;31.00;39.70;;;;;;5039193;28;20060;-85
2022/07/16 12:12:13;;;;;;;3.10;0.95;;;30.80;39.20;;;;;;5045765;28;20037;-85
2022/07/16 12:14:46;;;;;;;4.28;0.90;;;31.10;38.20;;;;;;5044537;28;20059;-85
2022/07/16 12:17:46;;;;;;;1.92;0.95;;;31.40;37.50;;;;;;5033762;28;20436;-86
2022/07/16 12:20:13;;;;;;;3.35;0.90;;;31.30;40.20;;;;;;5043321;28;20082;-85
2022/07/16 12:22:52;;;;;;;2.50;1.02;;;31.60;40.10;;;;;;5060944;28;20040;-86
2022/07/16 12:25:27;;;;;;;3.38;1.10;;;31.70;40.00;;;;;;5033763;28;20502;-85
2022/07/16 12:27:54;;;;;;;4.95;1.40;;;32.10;37.00;;;;;;5057963;28;20104;-85
2022/07/16 12:30:32;;;;;;;2.55;1.05;;;32.00;35.90;;;;;;5040990;28;20369;-84
2022/07/16 12:32:59;;;;;;;2.78;1.23;;;31.80;36.30;;;;;;5056465;28;20101;-85
2022/07/16 12:35:37;;;;;;;2.38;1.15;;;31.80;35.80;;;;;;5017894;28;20472;-84
2022/07/16 12:38:03;;;;;;;2.28;1.20;;;31.60;37.30;;;;;;5059541;28;20786;-85
2022/07/16 12:40:28;;;;;;;1.80;1.20;;;31.40;37.00;;;;;;5042423;28;20043;-83
2022/07/16 12:42:54;;;;;;;2.35;1.00;;;31.50;36.60;;;;;;5058240;28;20127;-84
2022/07/16 12:45:19;;;;;;;5.05;0.85;;;31.60;37.90;;;;;;5043483;28;20416;-84
2022/07/16 12:47:45;;;;;;;3.83;0.88;;;31.60;37.90;;;;;;5055003;28;20025;-84
2022/07/16 12:50:11;;;;;;;2.28;0.93;;;31.90;38.00;;;;;;5054109;28;20033;-82
2022/07/16 12:52:36;;;;;;;2.28;0.93;;;32.30;38.30;;;;;;5056749;28;20112;-84
2022/07/16 13:00:31;;;;;;;3.72;1.05;;;32.00;37.70;;;;;;5034378;28;20485;-84